createdAt,value
2022-09-07T00:00:27.242Z,110.95
2022-09-07T00:03:14.355Z,110.18
2022-09-07T00:06:06.732Z,111.88
2022-09-07T00:08:53.742Z,109.80
2022-09-07T00:11:40.732Z,111.88
2022-09-07T00:14:27.718Z,112.75
2022-09-07T00:17:14.647Z,114.22
2022-09-07T00:20:02.247Z,110.75
2022-09-07T00:22:49.353Z,111.85
2022-09-07T00:25:40.837Z,110.63
2022-09-07T00:28:28.059Z,108.35
2022-09-07T00:31:18.939Z,111.78
2022-09-07T00:34:06.446Z,112.88
2022-09-07T00:36:53.373Z,112.80
2022-09-07T00:39:40.459Z,115.05
2022-09-07T00:42:27.445Z,114.93
2022-09-07T00:45:21.015Z,115.90
2022-09-07T00:48:15.213Z,110.82
2022-09-07T00:51:07.615Z,117.32
2022-09-07T00:54:04.112Z,118.63
2022-09-07T00:56:55.593Z,117.55
2022-09-07T00:59:47.188Z,115.80
2022-09-07T01:02:34.468Z,116.18
2022-09-07T01:05:37.582Z,116.20
2022-09-07T01:08:25.042Z,110.10
2022-09-07T01:11:12.857Z,114.97
2022-09-07T01:14:00.026Z,115.72
2022-09-07T01:17:11.451Z,111.65
2022-09-07T01:20:17.213Z,112.30
2022-09-07T01:23:41.171Z,113.45
2022-09-07T01:27:05.900Z,113.32
2022-09-07T01:30:05.616Z,110.63
2022-09-07T01:33:03.607Z,110.40
2022-09-07T01:36:10.769Z,109.70
2022-09-07T01:39:02.808Z,108.82
2022-09-07T01:41:55.775Z,110.65
2022-09-07T01:44:50.612Z,111.38
2022-09-07T01:47:43.436Z,109.05
2022-09-07T01:50:42.008Z,109.13
2022-09-07T01:53:34.989Z,107.97
2022-09-07T01:56:32.646Z,108.13
2022-09-07T01:59:40.348Z,108.28
2022-09-07T02:02:34.335Z,106.35
2022-09-07T02:05:30.301Z,106.13
2022-09-07T02:08:32.319Z,108.30
2022-09-07T02:11:29.099Z,107.53
2022-09-07T02:14:23.169Z,108.95
2022-09-07T02:17:17.186Z,107.43
2022-09-07T02:20:13.323Z,109.45
2022-09-07T02:23:04.677Z,107.97
2022-09-07T02:25:59.078Z,108.90
2022-09-07T02:28:46.297Z,109.78
2022-09-07T02:31:33.807Z,107.32
2022-09-07T02:34:20.973Z,108.15
2022-09-07T02:37:09.917Z,107.43
2022-09-07T02:39:57.840Z,107.82
2022-09-07T02:42:47.598Z,109.95
2022-09-07T02:46:08.269Z,108.50
2022-09-07T02:49:24.327Z,106.65
2022-09-07T02:52:26.815Z,104.93
2022-09-07T02:55:55.641Z,107.05
2022-09-07T02:58:57.656Z,106.30
2022-09-07T03:02:06.853Z,109.40
2022-09-07T03:04:57.602Z,110.03
2022-09-07T03:08:10.690Z,113.55
2022-09-07T03:10:58.408Z,107.57
2022-09-07T03:13:45.478Z,110.90
2022-09-07T03:16:33.350Z,109.65
2022-09-07T03:19:20.325Z,109.68
2022-09-07T03:22:07.889Z,112.30
2022-09-07T03:24:54.836Z,113.25
2022-09-07T03:27:41.799Z,111.85
2022-09-07T03:30:28.859Z,112.13
2022-09-07T03:33:16.832Z,110.68
2022-09-07T03:36:03.924Z,111.70
2022-09-07T03:38:51.036Z,113.38
2022-09-07T03:41:38.420Z,113.18
2022-09-07T03:44:25.539Z,111.50
2022-09-07T03:47:12.741Z,108.63
2022-09-07T03:49:59.787Z,110.28
2022-09-07T03:52:46.746Z,113.72
2022-09-07T03:55:34.025Z,110.00
2022-09-07T03:58:21.020Z,107.82
2022-09-07T04:01:11.085Z,108.63
2022-09-07T04:04:02.283Z,109.07
2022-09-07T04:06:50.196Z,109.47
2022-09-07T04:09:37.142Z,110.53
2022-09-07T04:12:26.144Z,112.38
2022-09-07T04:15:13.105Z,110.53
2022-09-07T04:18:00.606Z,111.80
2022-09-07T04:20:48.191Z,111.10
2022-09-07T04:23:38.303Z,110.20
2022-09-07T04:26:33.616Z,113.20
2022-09-07T04:29:20.666Z,115.05
2022-09-07T04:32:07.942Z,107.45
2022-09-07T04:35:01.587Z,107.80
2022-09-07T04:37:48.674Z,108.85
2022-09-07T04:40:36.240Z,107.60
2022-09-07T04:43:23.274Z,108.75
2022-09-07T04:46:22.158Z,108.38
2022-09-07T04:49:11.002Z,108.88
2022-09-07T04:51:58.061Z,106.97
2022-09-07T04:54:49.998Z,110.38
2022-09-07T04:57:37.725Z,112.25
2022-09-07T05:00:24.761Z,112.18
2022-09-07T05:03:11.952Z,110.85
2022-09-07T05:06:07.303Z,115.05
2022-09-07T05:08:54.597Z,107.97
2022-09-07T05:11:41.577Z,108.28
2022-09-07T05:14:28.741Z,110.43
2022-09-07T05:17:16.165Z,106.90
2022-09-07T05:20:04.193Z,106.50
2022-09-07T05:22:59.575Z,106.35
2022-09-07T05:25:47.114Z,111.22
2022-09-07T05:28:35.214Z,114.45
2022-09-07T05:31:23.520Z,114.30
2022-09-07T05:37:18.063Z,108.10
2022-09-07T05:40:05.901Z,108.75
2022-09-07T05:42:52.849Z,106.50
2022-09-07T05:45:39.907Z,108.18
2022-09-07T05:48:27.343Z,108.07
2022-09-07T05:51:14.868Z,106.30
2022-09-07T05:54:01.835Z,110.38
2022-09-07T05:56:48.871Z,108.95
2022-09-07T05:59:35.952Z,115.97
2022-09-07T06:02:22.921Z,130.02
2022-09-07T06:05:11.251Z,143.82
2022-09-07T06:07:58.304Z,156.15
2022-09-07T06:10:45.536Z,159.23
2022-09-07T06:13:32.825Z,163.00
2022-09-07T06:16:20.913Z,153.20
2022-09-07T06:19:08.745Z,142.98
2022-09-07T06:21:55.682Z,137.50
2022-09-07T06:24:42.621Z,134.45
2022-09-07T06:27:29.639Z,137.20
2022-09-07T06:30:16.877Z,149.88
2022-09-07T06:33:03.810Z,161.73
2022-09-07T06:35:58.814Z,168.73
2022-09-07T06:38:47.115Z,171.68
2022-09-07T06:44:42.268Z,166.55
2022-09-07T06:47:29.322Z,158.38
2022-09-07T06:50:17.303Z,163.48
2022-09-07T06:56:14.359Z,160.30
2022-09-07T06:59:01.357Z,158.75
2022-09-07T07:01:48.398Z,169.73
2022-09-07T07:04:40.533Z,169.13
2022-09-07T07:07:28.004Z,174.73
2022-09-07T07:10:15.041Z,165.02
2022-09-07T07:13:01.975Z,150.50
2022-09-07T07:15:48.985Z,147.98
2022-09-07T07:18:36.697Z,144.90
2022-09-07T07:21:24.260Z,142.60
2022-09-07T07:24:11.307Z,135.85
2022-09-07T07:26:58.382Z,134.27
2022-09-07T07:29:46.177Z,136.70
2022-09-07T07:32:33.095Z,133.50
2022-09-07T07:35:20.076Z,139.73
2022-09-07T07:44:22.231Z,133.40
2022-09-07T07:47:10.071Z,133.82
2022-09-07T07:56:12.976Z,135.00
2022-09-07T07:59:00.103Z,136.30
2022-09-07T08:01:47.210Z,137.18
2022-09-07T08:04:35.151Z,134.68
2022-09-07T08:07:22.340Z,139.07
2022-09-07T08:10:10.285Z,135.80
2022-09-07T08:12:57.280Z,139.00
2022-09-07T08:15:47.328Z,140.30
2022-09-07T08:18:35.464Z,141.02
2022-09-07T08:21:22.368Z,139.68
2022-09-07T08:24:09.546Z,141.13
2022-09-07T08:26:56.730Z,142.23
2022-09-07T08:29:43.665Z,142.88
2022-09-07T08:32:30.680Z,147.40
2022-09-07T08:35:18.252Z,167.57
2022-09-07T08:38:05.496Z,186.73
2022-09-07T08:40:53.060Z,185.70
2022-09-07T08:43:54.967Z,192.18
2022-09-07T08:46:50.347Z,199.40
2022-09-07T08:49:49.753Z,204.57
2022-09-07T08:52:40.971Z,200.82
2022-09-07T08:55:35.973Z,201.85
2022-09-07T08:58:48.198Z,208.45
2022-09-07T09:01:42.526Z,200.43
2022-09-07T09:04:30.910Z,205.73
2022-09-07T09:07:56.601Z,206.15
2022-09-07T09:14:14.521Z,205.80
2022-09-07T09:17:09.547Z,207.13
2022-09-07T09:20:03.217Z,203.90
2022-09-07T09:22:54.524Z,223.25
2022-09-07T09:25:58.837Z,229.40
2022-09-07T09:28:45.732Z,227.35
2022-09-07T09:31:38.628Z,224.57
2022-09-07T09:34:29.375Z,221.23
2022-09-07T09:37:33.860Z,220.80
2022-09-07T09:40:30.937Z,215.98
2022-09-07T09:43:21.454Z,213.55
2022-09-07T09:46:23.542Z,213.27
2022-09-07T09:49:38.989Z,215.00
2022-09-07T09:52:31.846Z,211.23
2022-09-07T09:55:34.878Z,223.02
2022-09-07T10:04:56.097Z,225.20
2022-09-07T10:07:52.118Z,235.50
2022-09-07T10:10:52.691Z,227.95
2022-09-07T10:13:56.180Z,221.07
2022-09-07T10:16:44.364Z,233.45
2022-09-07T10:19:39.493Z,226.27
2022-09-07T10:22:37.430Z,227.95
2022-09-07T10:25:44.276Z,221.38
2022-09-07T10:31:46.966Z,224.30
2022-09-07T10:35:06.141Z,231.93
2022-09-07T10:37:57.237Z,229.80
2022-09-07T10:41:05.876Z,234.10
2022-09-07T10:43:53.020Z,247.70
2022-09-07T10:47:02.578Z,246.32
2022-09-07T10:50:22.980Z,268.52
2022-09-07T10:53:42.325Z,266.63
2022-09-07T10:56:53.212Z,256.92
2022-09-07T11:00:10.708Z,255.88
2022-09-07T11:03:35.060Z,258.67
2022-09-07T11:06:25.186Z,262.67
2022-09-07T11:09:51.352Z,258.10
2022-09-07T11:12:41.753Z,254.25
2022-09-07T11:15:33.116Z,250.85
2022-09-07T11:18:27.966Z,254.07
2022-09-07T11:21:56.156Z,250.52
2022-09-07T11:24:41.527Z,250.48
2022-09-07T11:27:36.459Z,247.55
2022-09-07T11:30:37.285Z,245.25
2022-09-07T11:33:30.421Z,246.30
2022-09-07T11:36:21.022Z,243.52
2022-09-07T11:39:17.056Z,246.68
2022-09-07T11:42:43.208Z,244.40
2022-09-07T11:45:41.263Z,238.73
2022-09-07T11:48:36.639Z,227.48
2022-09-07T11:51:38.844Z,233.60
2022-09-07T11:54:44.084Z,231.60
2022-09-07T11:57:55.896Z,224.57
2022-09-07T12:01:07.015Z,217.20
2022-09-07T12:04:13.239Z,213.30
2022-09-07T12:07:28.192Z,225.50
2022-09-07T12:10:33.263Z,236.43
2022-09-07T12:13:37.051Z,238.70
2022-09-07T12:16:37.398Z,255.57
2022-09-07T12:19:26.948Z,251.65
2022-09-07T12:22:23.295Z,254.18
2022-09-07T12:25:18.471Z,256.10
2022-09-07T12:28:05.517Z,250.57
2022-09-07T12:31:01.148Z,258.80
2022-09-07T12:34:26.562Z,267.80
2022-09-07T12:37:16.631Z,261.52
2022-09-07T12:40:32.238Z,269.48
2022-09-07T12:43:19.073Z,269.88
2022-09-07T12:46:18.977Z,265.52
2022-09-07T12:49:20.519Z,258.65
2022-09-07T12:52:47.682Z,253.32
2022-09-07T12:59:28.548Z,264.08
2022-09-07T13:02:34.649Z,273.58
2022-09-07T13:05:32.845Z,263.60
2022-09-07T13:08:19.663Z,264.25
2022-09-07T13:11:22.085Z,258.10
2022-09-07T13:14:15.994Z,258.75
2022-09-07T13:17:43.347Z,263.35
2022-09-07T13:20:36.161Z,262.88
2022-09-07T13:23:26.594Z,258.48
2022-09-07T13:26:52.116Z,261.60
2022-09-07T13:29:49.191Z,259.00
2022-09-07T13:35:45.664Z,236.73
2022-09-07T13:38:36.601Z,235.85
2022-09-07T13:41:29.836Z,233.68
2022-09-07T13:44:26.542Z,227.48
2022-09-07T13:47:37.950Z,230.95
2022-09-07T13:50:33.871Z,231.98
2022-09-07T13:53:37.658Z,235.50
2022-09-07T13:56:45.941Z,234.82
2022-09-07T13:59:35.412Z,245.93
2022-09-07T14:02:42.897Z,243.68
2022-09-07T14:05:29.992Z,238.20
2022-09-07T14:08:25.271Z,248.90
2022-09-07T14:11:22.196Z,247.98
2022-09-07T14:14:18.336Z,256.02
2022-09-07T14:17:11.057Z,257.90
2022-09-07T14:19:59.851Z,264.42
2022-09-07T14:22:50.604Z,260.27
2022-09-07T14:28:51.112Z,258.08
2022-09-07T14:31:38.256Z,264.63
2022-09-07T14:34:31.273Z,257.80
2022-09-07T14:37:21.315Z,256.85
2022-09-07T14:40:21.948Z,260.42
2022-09-07T14:43:33.097Z,252.65
2022-09-07T14:46:29.474Z,247.25
2022-09-07T14:49:20.075Z,245.13
2022-09-07T14:52:07.128Z,244.45
2022-09-07T14:54:54.192Z,241.13
2022-09-07T14:57:41.360Z,241.40
2022-09-07T15:00:31.636Z,242.57
2022-09-07T15:03:41.767Z,248.73
2022-09-07T15:09:46.195Z,248.05
2022-09-07T15:12:38.785Z,243.95
2022-09-07T15:15:30.431Z,258.30
2022-09-07T15:18:55.718Z,251.48
2022-09-07T15:21:44.015Z,251.68
2022-09-07T15:24:31.142Z,247.80
2022-09-07T15:27:27.121Z,243.70
2022-09-07T15:30:14.099Z,236.38
2022-09-07T15:33:01.311Z,233.57
2022-09-07T15:35:52.428Z,227.85
2022-09-07T15:41:47.074Z,230.48
2022-09-07T15:44:34.223Z,224.55
2022-09-07T15:50:28.252Z,224.23
2022-09-07T15:56:22.661Z,221.07
2022-09-07T15:59:11.043Z,222.15
2022-09-07T16:01:58.598Z,222.68
2022-09-07T16:04:45.885Z,213.70
2022-09-07T16:10:41.354Z,213.52
2022-09-07T16:13:31.430Z,216.07
2022-09-07T16:16:18.930Z,210.75
2022-09-07T16:19:07.187Z,209.25
2022-09-07T16:21:58.847Z,199.95
2022-09-07T16:24:45.876Z,203.57
2022-09-07T16:27:33.807Z,199.82
2022-09-07T16:30:22.315Z,197.05
2022-09-07T16:33:09.368Z,195.18
2022-09-07T16:36:01.494Z,190.68
2022-09-07T16:38:48.698Z,191.20
2022-09-07T16:41:35.860Z,189.88
2022-09-07T16:44:23.229Z,187.48
2022-09-07T16:47:10.627Z,184.82
2022-09-07T16:49:57.643Z,184.43
2022-09-07T16:52:45.966Z,182.05
2022-09-07T16:55:33.220Z,178.00
2022-09-07T16:58:36.216Z,179.00
2022-09-07T17:01:27.099Z,180.80
2022-09-07T17:04:14.609Z,176.68
2022-09-07T17:07:02.392Z,171.32
2022-09-07T17:09:49.775Z,174.73
2022-09-07T17:12:38.155Z,170.00
2022-09-07T17:15:25.239Z,164.82
2022-09-07T17:18:12.664Z,163.57
2022-09-07T17:21:01.042Z,163.25
2022-09-07T17:23:54.350Z,159.93
2022-09-07T17:29:37.136Z,155.73
2022-09-07T17:35:14.203Z,147.57
2022-09-07T17:38:01.447Z,149.00
2022-09-07T17:40:48.387Z,149.60
2022-09-07T17:43:55.064Z,146.48
2022-09-07T17:46:42.073Z,139.43
2022-09-07T17:49:29.489Z,144.10
2022-09-07T17:52:16.395Z,139.70
2022-09-07T17:55:04.015Z,141.40
2022-09-07T17:57:50.921Z,141.65
2022-09-07T18:00:37.881Z,141.93
2022-09-07T18:03:24.980Z,139.75
2022-09-07T18:06:13.287Z,145.00
2022-09-07T18:09:02.722Z,144.88
2022-09-07T18:11:50.327Z,144.45
2022-09-07T18:14:37.801Z,144.35
2022-09-07T18:17:24.768Z,146.52
2022-09-07T18:20:11.854Z,141.85
2022-09-07T18:22:58.723Z,143.75
2022-09-07T18:25:56.174Z,144.30
2022-09-07T18:31:50.169Z,141.80
2022-09-07T18:34:39.244Z,140.15
2022-09-07T18:37:27.427Z,141.48
2022-09-07T18:40:14.632Z,140.68
2022-09-07T18:43:04.236Z,141.13
2022-09-07T18:45:52.036Z,138.57
2022-09-07T18:48:39.099Z,138.50
2022-09-07T18:51:26.463Z,138.20
2022-09-07T18:54:13.435Z,138.95
2022-09-07T18:57:00.571Z,134.90
2022-09-07T18:59:47.585Z,136.18
2022-09-07T19:02:35.258Z,132.93
2022-09-07T19:08:37.294Z,127.63
2022-09-07T19:11:27.306Z,127.85
2022-09-07T19:14:14.415Z,132.00
2022-09-07T19:17:01.483Z,132.82
2022-09-07T19:19:48.732Z,136.25
2022-09-07T19:22:35.798Z,133.02
2022-09-07T19:25:23.935Z,134.32
2022-09-07T19:28:10.985Z,133.25
2022-09-07T19:31:07.665Z,131.32
2022-09-07T19:33:59.138Z,131.25
2022-09-07T19:36:46.108Z,132.77
2022-09-07T19:39:33.371Z,132.77
2022-09-07T19:42:20.875Z,129.52
2022-09-07T19:45:08.395Z,129.50
2022-09-07T19:47:55.396Z,127.43
2022-09-07T19:50:42.622Z,130.93
2022-09-07T19:53:34.000Z,130.10
2022-09-07T19:56:24.173Z,126.43
2022-09-07T19:59:12.299Z,125.30
2022-09-07T20:01:59.252Z,128.10
2022-09-07T20:04:46.220Z,126.03
2022-09-07T20:07:33.175Z,127.97
2022-09-07T20:10:20.620Z,130.95
2022-09-07T20:13:08.013Z,127.78
2022-09-07T20:15:55.372Z,131.23
2022-09-07T20:18:43.149Z,129.23
2022-09-07T20:21:30.258Z,131.15
2022-09-07T20:24:22.249Z,132.32
2022-09-07T20:27:09.662Z,130.82
2022-09-07T20:29:56.580Z,123.55
2022-09-07T20:32:44.476Z,124.60
2022-09-07T20:35:31.632Z,127.03
2022-09-07T20:38:20.755Z,126.60
2022-09-07T20:41:11.076Z,126.75
2022-09-07T20:44:00.103Z,126.07
2022-09-07T20:46:47.382Z,127.10
2022-09-07T20:49:34.367Z,125.63
2022-09-07T20:52:21.250Z,127.53
2022-09-07T20:55:08.765Z,130.93
2022-09-07T20:57:56.495Z,127.28
2022-09-07T21:00:43.450Z,126.78
2022-09-07T21:03:30.885Z,129.35
2022-09-07T21:06:19.564Z,132.75
2022-09-07T21:09:06.568Z,131.23
2022-09-07T21:11:56.887Z,134.35
2022-09-07T21:14:46.072Z,135.15
2022-09-07T21:17:32.970Z,129.70
2022-09-07T21:20:20.033Z,129.88
2022-09-07T21:23:07.215Z,124.63
2022-09-07T21:25:54.441Z,124.22
2022-09-07T21:28:41.438Z,115.57
2022-09-07T21:31:30.200Z,113.38
2022-09-07T21:34:17.281Z,110.30
2022-09-07T21:37:04.352Z,105.13
2022-09-07T21:39:51.358Z,103.35
2022-09-07T21:42:38.738Z,103.90
2022-09-07T21:45:25.876Z,104.43
2022-09-07T21:48:12.909Z,100.47
2022-09-07T21:51:00.092Z,99.03
2022-09-07T21:53:53.311Z,94.53
2022-09-07T21:56:45.872Z,97.30
2022-09-07T21:59:34.370Z,96.55
2022-09-07T22:02:21.276Z,95.63
2022-09-07T22:05:08.666Z,93.05
2022-09-07T22:07:55.550Z,93.78
2022-09-07T22:10:44.272Z,97.57
2022-09-07T22:13:31.394Z,91.90
2022-09-07T22:16:19.012Z,95.00
2022-09-07T22:19:09.155Z,99.82
2022-09-07T22:21:56.133Z,99.35
2022-09-07T22:24:43.192Z,97.82
2022-09-07T22:27:30.097Z,95.32
2022-09-07T22:30:17.061Z,100.82
2022-09-07T22:33:04.090Z,101.72
2022-09-07T22:35:51.069Z,99.78
2022-09-07T22:38:38.576Z,95.82
2022-09-07T22:41:28.408Z,97.53
2022-09-07T22:44:17.927Z,96.00
2022-09-07T22:47:05.109Z,96.47
2022-09-07T22:49:52.031Z,98.22
2022-09-07T22:52:38.915Z,99.13
2022-09-07T22:55:25.887Z,97.88
2022-09-07T22:58:12.768Z,100.70
2022-09-07T23:00:59.819Z,105.38
2022-09-07T23:03:46.985Z,103.10
2022-09-07T23:06:37.088Z,99.75
2022-09-07T23:09:23.985Z,102.38
2022-09-07T23:12:10.920Z,96.80
2022-09-07T23:14:57.815Z,98.55
2022-09-07T23:17:44.879Z,97.90
2022-09-07T23:20:33.775Z,97.47
2022-09-07T23:23:20.686Z,99.30
2022-09-07T23:26:08.093Z,99.00
2022-09-07T23:28:58.013Z,100.88
2022-09-07T23:31:45.893Z,98.00
2022-09-07T23:34:32.936Z,100.05
2022-09-07T23:37:19.997Z,98.13
2022-09-07T23:40:08.674Z,94.70
2022-09-07T23:42:55.755Z,93.22
2022-09-07T23:45:42.733Z,96.57
2022-09-07T23:48:29.649Z,93.65
2022-09-07T23:51:22.864Z,92.57
2022-09-07T23:54:10.964Z,93.80
2022-09-07T23:56:57.846Z,96.90
2022-09-07T23:59:44.762Z,94.28
